logo
Rechercher aéroport 
image banner adimage banner adimage banner ad
image banner ad

ED3170 - Matzerath

Situé à , Germany

ICAO - , IATA -

Données fournies par Airmate  

Information générale

Coordonnées: N51°4'40" E6°16'37"
Élévation : 300 feet MSL.
 
Voir autres Aéroports à North Rhine-Westphalia

Données opérationnelles

Special qualification required
Heure actuelle UTC:
Heure actuelle locale:
Météo à : ETNG - Geilenkirchen ( 21 km )
METAR: ETNG 151950Z VRB02KT CAVOK 23/17 Q1006 TEMPO 5000 SHRA
TAF: TAF ETNG 152000Z 1521/1612 07005KT CAVOK TEMPO 1521/1523 5000 SHRA BKN050CB PROB30 TEMPO 1521/1522 22015G25KT 3500 TSRA BKN030CB BECMG 1522/1524 22008G15KT SCT030 BECMG 1608/1610 23012G22KT
Voir NOTAMs / SUP AIP / TFR affectant cet aéroport [VIEW]
Fréquences de communication: [VIEW]

Pistes:

Coordonnées de l'aéroport

Adresse: Germany

Vue satellite de ED3170